Time;durP1;ratioP1;P1;durP2;ratioP2;P2;SDS_P1;SDS_P2;PMS_P1;PMS_P2;Temp;Humidity;BMP_temperature;BMP_pressure;BME280_temperature;BME280_humidity;BME280_pressure;Samples;Min_cycle;Max_cycle;Signal;HPM_P1;HPM_P2
2023/12/09 00:01:52;;;;;;;3.50;3.20;;;18.90;56.90;;;;;;4973566;28;20201;-71
2023/12/09 00:04:17;;;;;;;3.72;3.35;;;18.90;56.30;;;;;;4955887;28;20196;-72
2023/12/09 00:06:48;;;;;;;3.72;3.35;;;18.90;56.30;;;;;;4972262;28;20196;-71
2023/12/09 00:09:15;;;;;;;3.20;2.90;;;18.90;56.30;;;;;;4971776;28;20209;-71
2023/12/09 00:11:42;;;;;;;3.60;3.30;;;18.90;56.30;;;;;;4973727;28;20178;-72
2023/12/09 00:14:07;;;;;;;3.38;3.10;;;19.00;56.40;;;;;;4956103;28;20193;-71
2023/12/09 00:16:34;;;;;;;3.20;2.90;;;18.90;56.40;;;;;;4958317;28;20186;-71
2023/12/09 00:19:00;;;;;;;3.50;3.20;;;18.90;56.30;;;;;;4971632;28;20206;-71
2023/12/09 00:21:27;;;;;;;3.10;2.80;;;19.00;56.40;;;;;;4976782;28;20203;-72
2023/12/09 00:23:52;;;;;;;3.30;3.00;;;19.00;56.40;;;;;;4970137;28;20232;-71
2023/12/09 00:26:18;;;;;;;3.28;2.97;;;19.00;56.40;;;;;;4971826;28;20193;-71
2023/12/09 00:28:45;;;;;;;2.85;2.65;;;19.00;56.40;;;;;;4968909;28;20225;-71
2023/12/09 00:31:11;;;;;;;3.10;2.80;;;19.00;56.40;;;;;;4971676;28;20244;-71
2023/12/09 00:33:37;;;;;;;3.40;3.03;;;18.90;56.40;;;;;;4991541;28;20193;-71
2023/12/09 00:36:03;;;;;;;3.00;2.80;;;18.90;56.30;;;;;;4978288;28;20196;-71
2023/12/09 00:38:29;;;;;;;3.30;3.08;;;19.00;57.00;;;;;;4968066;28;20188;-71
2023/12/09 00:40:55;;;;;;;2.83;2.58;;;18.90;56.30;;;;;;4963039;28;20313;-71
2023/12/09 00:43:22;;;;;;;3.10;2.90;;;18.90;56.40;;;;;;4965801;28;20660;-72
2023/12/09 00:45:47;;;;;;;3.30;3.00;;;19.00;57.00;;;;;;4977601;28;20185;-72
2023/12/09 00:48:13;;;;;;;3.22;2.92;;;18.90;56.40;;;;;;4977778;28;20212;-71
2023/12/09 00:50:39;;;;;;;3.20;2.90;;;18.90;56.40;;;;;;4978226;28;20205;-72
2023/12/09 00:53:04;;;;;;;3.30;3.00;;;18.90;56.40;;;;;;4980365;28;20665;-72
2023/12/09 00:55:30;;;;;;;2.83;2.63;;;18.90;56.40;;;;;;4979108;28;20182;-72
2023/12/09 00:57:56;;;;;;;3.05;2.75;;;19.00;56.50;;;;;;4978799;28;20581;-70
2023/12/09 01:00:24;;;;;;;3.50;3.17;;;19.00;56.50;;;;;;4978173;28;20224;-70
2023/12/09 01:02:49;;;;;;;2.90;2.70;;;19.00;56.50;;;;;;4994271;28;20239;-72
2023/12/09 01:05:15;;;;;;;3.03;2.72;;;19.00;56.40;;;;;;4988566;28;20601;-71
2023/12/09 01:07:42;;;;;;;2.90;2.67;;;19.00;56.50;;;;;;4980092;28;20213;-71
2023/12/09 01:10:08;;;;;;;3.20;2.85;;;19.00;56.40;;;;;;4970916;28;20217;-71
2023/12/09 01:12:34;;;;;;;3.13;2.83;;;19.00;56.50;;;;;;4959965;28;20202;-72
2023/12/09 01:14:59;;;;;;;3.17;2.88;;;19.00;56.40;;;;;;4980449;28;20225;-71
2023/12/09 01:17:25;;;;;;;3.72;3.38;;;19.00;56.40;;;;;;4965056;28;20192;-71
2023/12/09 01:19:51;;;;;;;3.47;3.10;;;19.00;56.40;;;;;;4975624;28;20217;-71
2023/12/09 01:22:16;;;;;;;4.13;3.25;;;19.00;56.50;;;;;;4994152;28;20190;-72
2023/12/09 01:24:43;;;;;;;3.20;2.92;;;18.90;56.40;;;;;;4994074;28;20177;-72
2023/12/09 01:27:08;;;;;;;3.00;2.80;;;19.00;56.50;;;;;;4981082;28;20211;-72
2023/12/09 01:29:36;;;;;;;3.35;3.05;;;19.00;56.50;;;;;;4986224;28;20606;-72
2023/12/09 01:32:02;;;;;;;3.70;3.22;;;18.90;57.00;;;;;;4972775;28;20288;-71
2023/12/09 01:34:28;;;;;;;2.80;2.60;;;19.00;56.50;;;;;;4977859;28;20196;-72
2023/12/09 01:36:54;;;;;;;3.42;2.90;;;19.00;56.50;;;;;;4980660;28;20186;-72
2023/12/09 01:39:20;;;;;;;3.10;2.80;;;19.00;56.50;;;;;;4977322;28;20220;-71
2023/12/09 01:41:46;;;;;;;3.95;2.80;;;19.00;56.50;;;;;;4993789;28;20189;-71
2023/12/09 01:44:12;;;;;;;3.38;3.08;;;19.00;56.50;;;;;;4976616;28;20201;-72
2023/12/09 01:46:39;;;;;;;3.70;3.25;;;19.00;56.50;;;;;;4976791;28;20185;-71
2023/12/09 01:49:05;;;;;;;3.20;2.85;;;19.00;56.50;;;;;;4977623;28;20264;-71
2023/12/09 01:51:33;;;;;;;3.20;2.90;;;19.00;56.50;;;;;;4974667;28;20198;-72
2023/12/09 01:53:59;;;;;;;3.15;2.85;;;19.00;56.50;;;;;;4969094;28;20228;-72
2023/12/09 01:56:25;;;;;;;3.30;2.97;;;18.90;56.40;;;;;;4963617;28;20233;-70
2023/12/09 01:58:51;;;;;;;3.22;2.92;;;19.00;56.50;;;;;;4971067;28;20200;-71
2023/12/09 02:01:17;;;;;;;3.08;2.78;;;18.90;56.40;;;;;;4974558;28;20190;-71
2023/12/09 02:03:43;;;;;;;2.95;2.70;;;19.00;56.50;;;;;;4974238;28;20185;-72
2023/12/09 02:06:09;;;;;;;3.15;2.60;;;19.00;56.50;;;;;;4974137;28;20195;-72
2023/12/09 02:08:39;;;;;;;2.90;2.70;;;18.90;56.50;;;;;;4982109;28;20212;-71
2023/12/09 02:11:14;;;;;;;3.15;2.85;;;19.00;56.50;;;;;;4995728;28;20185;-71
2023/12/09 02:14:18;;;;;;;2.90;2.60;;;19.00;56.50;;;;;;4974478;28;20193;-71
2023/12/09 02:16:53;;;;;;;3.33;2.80;;;19.00;56.50;;;;;;4975205;28;20189;-71
2023/12/09 02:19:20;;;;;;;3.03;2.67;;;19.00;56.50;;;;;;4974920;28;20220;-72
2023/12/09 02:22:06;;;;;;;3.17;2.72;;;19.00;56.50;;;;;;4974489;28;20186;-71
2023/12/09 02:24:33;;;;;;;2.92;2.63;;;19.00;56.50;;;;;;4973242;28;20215;-71
2023/12/09 02:27:15;;;;;;;3.10;2.70;;;19.00;56.50;;;;;;4980009;28;20276;-70
2023/12/09 02:30:19;;;;;;;3.05;2.75;;;19.00;56.50;;;;;;4978162;28;20201;-71
2023/12/09 02:32:46;;;;;;;3.50;2.53;;;19.00;56.50;;;;;;4983307;28;20197;-71
2023/12/09 02:35:14;;;;;;;2.60;2.40;;;19.00;56.50;;;;;;4974015;28;20669;-72
2023/12/09 02:37:42;;;;;;;2.70;2.50;;;19.00;56.50;;;;;;4994429;28;20240;-71
2023/12/09 02:40:10;;;;;;;3.00;2.60;;;19.00;56.60;;;;;;4973572;28;20231;-71
2023/12/09 02:42:39;;;;;;;2.78;2.47;;;19.00;56.50;;;;;;4990106;28;20216;-71
2023/12/09 02:45:07;;;;;;;3.03;2.60;;;19.00;56.50;;;;;;4965374;28;20205;-70
2023/12/09 02:47:32;;;;;;;2.88;2.67;;;18.90;56.50;;;;;;4977188;28;20614;-72
2023/12/09 02:49:58;;;;;;;2.90;2.60;;;19.00;56.60;;;;;;4954900;28;20221;-72
2023/12/09 02:52:24;;;;;;;2.70;2.50;;;19.00;56.60;;;;;;4973282;28;20273;-71
2023/12/09 02:54:49;;;;;;;2.50;2.30;;;19.00;56.60;;;;;;4973465;28;20193;-71
2023/12/09 02:57:16;;;;;;;2.70;2.50;;;19.00;56.50;;;;;;4956682;28;20638;-72
2023/12/09 02:59:41;;;;;;;2.60;2.33;;;19.00;56.50;;;;;;4973290;28;20264;-71
2023/12/09 03:02:07;;;;;;;2.58;2.38;;;19.00;56.50;;;;;;4963978;28;20686;-71
2023/12/09 03:04:33;;;;;;;2.50;2.30;;;19.00;56.60;;;;;;4983658;28;20190;-71
2023/12/09 03:06:59;;;;;;;2.60;2.40;;;19.00;56.60;;;;;;4974226;28;20197;-72
2023/12/09 03:09:25;;;;;;;2.38;2.17;;;19.00;56.60;;;;;;4992040;28;20278;-71
2023/12/09 03:11:51;;;;;;;3.10;2.80;;;19.00;56.60;;;;;;4973120;28;20197;-71
2023/12/09 03:14:16;;;;;;;2.42;2.22;;;19.00;56.60;;;;;;4956963;28;20193;-72
2023/12/09 03:16:42;;;;;;;2.92;2.30;;;19.00;56.50;;;;;;4989259;28;20190;-71
2023/12/09 03:19:08;;;;;;;2.78;2.58;;;18.90;56.50;;;;;;4971673;28;20254;-72
2023/12/09 03:21:34;;;;;;;2.10;2.00;;;19.00;56.60;;;;;;4972798;28;20193;-71
2023/12/09 03:23:59;;;;;;;2.80;2.45;;;19.00;56.60;;;;;;4955786;28;20234;-72
2023/12/09 03:26:26;;;;;;;2.30;2.05;;;19.00;56.50;;;;;;4965000;28;20210;-71
2023/12/09 03:28:51;;;;;;;2.38;2.17;;;19.00;56.60;;;;;;4969026;28;20225;-71
2023/12/09 03:31:18;;;;;;;2.83;2.40;;;19.00;56.60;;;;;;4968639;28;20285;-71
2023/12/09 03:33:43;;;;;;;2.67;2.47;;;19.00;56.60;;;;;;4972633;28;20260;-71
2023/12/09 03:36:14;;;;;;;2.50;2.30;;;19.00;56.60;;;;;;4964586;28;20724;-72
2023/12/09 03:38:41;;;;;;;2.53;2.33;;;19.00;56.60;;;;;;4972210;28;20201;-72
2023/12/09 03:41:08;;;;;;;2.40;2.20;;;19.00;56.60;;;;;;4963148;28;20198;-72
2023/12/09 03:43:34;;;;;;;2.60;2.40;;;19.00;56.60;;;;;;4965249;28;20205;-72
2023/12/09 03:46:00;;;;;;;2.72;2.47;;;19.00;56.60;;;;;;4965748;28;20280;-71
2023/12/09 03:48:27;;;;;;;2.38;2.17;;;19.00;56.60;;;;;;4948729;29;20361;-72
2023/12/09 03:50:53;;;;;;;2.40;2.20;;;19.00;56.60;;;;;;4977598;28;20214;-72
2023/12/09 03:53:18;;;;;;;2.17;1.98;;;19.00;56.60;;;;;;4960451;28;20194;-72
2023/12/09 03:55:44;;;;;;;2.53;2.17;;;19.00;56.60;;;;;;4955590;28;20198;-71
2023/12/09 03:58:11;;;;;;;2.30;2.10;;;19.00;56.60;;;;;;4950308;28;20208;-72
2023/12/09 04:00:36;;;;;;;2.30;2.10;;;19.00;56.60;;;;;;4972012;28;20305;-71
2023/12/09 04:03:03;;;;;;;1.83;1.73;;;19.00;56.60;;;;;;4984281;28;20264;-72
2023/12/09 04:05:29;;;;;;;2.17;1.98;;;19.00;56.60;;;;;;4964877;28;20208;-71
2023/12/09 04:07:55;;;;;;;1.90;1.75;;;19.00;56.60;;;;;;4959760;28;20288;-70
2023/12/09 04:10:21;;;;;;;1.83;1.73;;;19.00;56.70;;;;;;4960606;28;20217;-71
2023/12/09 04:12:46;;;;;;;2.28;2.08;;;19.00;56.60;;;;;;4971969;28;20186;-72
2023/12/09 04:15:12;;;;;;;2.00;1.80;;;19.00;56.60;;;;;;4965065;28;20664;-71
2023/12/09 04:17:38;;;;;;;2.25;2.05;;;19.00;56.60;;;;;;4978115;28;20202;-71
2023/12/09 04:20:07;;;;;;;2.22;2.03;;;19.00;56.60;;;;;;4948116;28;20206;-72
2023/12/09 04:22:33;;;;;;;2.13;2.03;;;19.00;56.60;;;;;;4968476;28;20213;-72
2023/12/09 04:24:59;;;;;;;2.00;1.80;;;19.00;56.60;;;;;;4946855;29;20206;-71
2023/12/09 04:27:24;;;;;;;2.35;2.00;;;19.00;56.70;;;;;;4959479;28;20225;-71
2023/12/09 04:29:51;;;;;;;2.03;1.83;;;19.00;56.60;;;;;;4963524;28;20237;-71
2023/12/09 04:32:16;;;;;;;1.88;1.77;;;19.00;56.70;;;;;;4986775;28;20197;-70
2023/12/09 04:34:42;;;;;;;2.00;1.80;;;19.00;56.70;;;;;;4968396;28;20185;-72
2023/12/09 04:37:08;;;;;;;2.17;1.95;;;19.00;56.70;;;;;;4969228;28;20584;-71
2023/12/09 04:39:34;;;;;;;1.98;1.80;;;19.00;56.70;;;;;;4979659;28;20225;-71
2023/12/09 04:42:00;;;;;;;1.95;1.85;;;19.00;56.70;;;;;;4971876;28;20201;-72
2023/12/09 04:44:25;;;;;;;1.80;1.70;;;19.00;56.60;;;;;;4976702;28;20205;-70
2023/12/09 04:46:51;;;;;;;2.20;1.70;;;19.00;56.60;;;;;;4963927;28;20197;-70
2023/12/09 04:49:17;;;;;;;1.88;1.77;;;19.00;56.60;;;;;;4968517;28;20276;-70
2023/12/09 04:51:43;;;;;;;1.88;1.77;;;19.00;56.60;;;;;;4971804;28;20197;-71
2023/12/09 04:54:08;;;;;;;1.70;1.60;;;19.00;56.60;;;;;;4973954;28;20193;-71
2023/12/09 04:56:34;;;;;;;1.90;1.80;;;19.00;56.60;;;;;;4962668;28;20197;-71
2023/12/09 04:59:00;;;;;;;2.22;1.83;;;19.00;56.60;;;;;;4971635;28;20212;-72
2023/12/09 05:01:26;;;;;;;1.83;1.70;;;19.00;56.70;;;;;;4961194;28;20196;-71
2023/12/09 05:03:52;;;;;;;1.50;1.40;;;19.00;56.70;;;;;;4968263;28;20230;-71
2023/12/09 05:06:18;;;;;;;1.85;1.67;;;19.00;56.60;;;;;;4964864;28;20197;-72
2023/12/09 05:08:44;;;;;;;2.00;1.35;;;19.00;56.70;;;;;;4979451;28;20217;-72
2023/12/09 05:11:09;;;;;;;1.65;1.42;;;19.00;56.60;;;;;;4971342;28;20203;-71
2023/12/09 05:13:35;;;;;;;1.75;1.65;;;19.00;56.60;;;;;;4971437;28;20253;-71
2023/12/09 05:16:02;;;;;;;1.50;1.40;;;19.00;56.60;;;;;;4972521;28;20193;-72
2023/12/09 05:18:28;;;;;;;1.52;1.42;;;19.00;56.70;;;;;;4982175;28;20194;-71
2023/12/09 05:20:53;;;;;;;1.85;1.58;;;19.00;56.60;;;;;;4979910;28;20227;-72
2023/12/09 05:23:19;;;;;;;1.50;1.40;;;19.00;56.60;;;;;;4982299;28;20209;-71
2023/12/09 05:25:45;;;;;;;1.63;1.52;;;19.00;56.60;;;;;;4991396;28;20200;-72
2023/12/09 05:28:11;;;;;;;1.90;1.80;;;19.00;56.60;;;;;;4956278;28;20218;-71
2023/12/09 05:30:36;;;;;;;1.42;1.33;;;19.00;56.70;;;;;;4992999;28;20213;-71
2023/12/09 05:33:03;;;;;;;1.60;1.50;;;19.00;56.60;;;;;;4974788;28;20193;-71
2023/12/09 05:35:29;;;;;;;1.70;1.60;;;19.00;56.70;;;;;;4974772;28;20280;-71
2023/12/09 05:37:55;;;;;;;1.42;1.33;;;19.00;56.70;;;;;;4974123;28;20285;-70
2023/12/09 05:40:20;;;;;;;1.60;1.50;;;19.00;56.70;;;;;;4959092;28;20220;-71
2023/12/09 05:42:46;;;;;;;1.70;1.60;;;19.00;56.70;;;;;;4975229;28;20196;-72
2023/12/09 05:45:12;;;;;;;1.70;1.60;;;19.00;56.70;;;;;;4956032;28;20221;-71
2023/12/09 05:47:38;;;;;;;1.42;1.33;;;19.00;56.70;;;;;;4989864;28;20221;-72
2023/12/09 05:50:04;;;;;;;1.40;1.30;;;19.00;56.70;;;;;;4953662;29;20218;-71
2023/12/09 05:52:30;;;;;;;1.40;1.30;;;19.00;56.60;;;;;;4973292;28;20264;-72
2023/12/09 05:54:56;;;;;;;1.50;1.40;;;19.00;56.60;;;;;;4958423;28;20216;-72
2023/12/09 05:57:22;;;;;;;1.92;1.55;;;19.00;56.70;;;;;;4990546;28;20221;-71
2023/12/09 05:59:47;;;;;;;1.60;1.50;;;19.00;56.60;;;;;;4974205;28;20209;-71
2023/12/09 06:02:13;;;;;;;1.67;1.58;;;19.00;56.60;;;;;;4974351;28;20198;-71
2023/12/09 06:04:39;;;;;;;1.70;1.60;;;19.00;56.70;;;;;;4992614;28;20197;-71
2023/12/09 06:07:04;;;;;;;1.70;1.60;;;19.00;56.60;;;;;;4990453;28;20194;-70
2023/12/09 06:09:31;;;;;;;1.48;1.38;;;19.00;56.60;;;;;;4973762;28;20209;-71
2023/12/09 06:11:56;;;;;;;1.60;1.50;;;19.00;56.60;;;;;;4990235;28;20193;-71
2023/12/09 06:14:22;;;;;;;1.70;1.60;;;19.00;56.60;;;;;;4974057;28;20220;-71
2023/12/09 06:16:48;;;;;;;1.40;1.30;;;19.00;56.70;;;;;;4973993;28;20177;-71
2023/12/09 06:19:14;;;;;;;1.75;1.65;;;19.00;56.60;;;;;;4976672;28;20210;-71
2023/12/09 06:21:40;;;;;;;1.45;1.20;;;19.00;56.60;;;;;;4971011;28;20182;-71
2023/12/09 06:24:06;;;;;;;1.50;1.40;;;19.00;56.70;;;;;;4966385;28;20209;-71
2023/12/09 06:26:31;;;;;;;1.65;1.55;;;19.00;56.70;;;;;;4991309;28;20279;-72
2023/12/09 06:28:57;;;;;;;1.40;1.30;;;19.00;56.60;;;;;;4973617;28;20296;-71
2023/12/09 06:31:23;;;;;;;1.42;1.33;;;19.00;56.70;;;;;;4968625;28;20238;-71
2023/12/09 06:33:48;;;;;;;1.50;1.40;;;19.00;56.60;;;;;;4974069;28;20266;-71
2023/12/09 06:36:14;;;;;;;1.45;1.27;;;19.00;56.60;;;;;;4973623;28;20197;-72
2023/12/09 06:38:40;;;;;;;1.20;1.10;;;19.00;56.60;;;;;;4973544;28;20204;-72
2023/12/09 06:41:07;;;;;;;1.85;1.33;;;19.00;56.70;;;;;;4952108;28;20193;-71
2023/12/09 06:43:33;;;;;;;1.35;1.25;;;19.00;56.70;;;;;;4974670;28;20292;-71
2023/12/09 06:46:00;;;;;;;1.58;1.45;;;19.00;56.70;;;;;;4974854;28;20582;-71
2023/12/09 06:48:26;;;;;;;0.95;0.95;;;19.00;56.60;;;;;;4973094;28;20248;-71
2023/12/09 06:50:52;;;;;;;1.38;1.27;;;19.00;56.60;;;;;;4957534;28;20296;-71
2023/12/09 06:53:17;;;;;;;1.48;1.38;;;18.90;56.60;;;;;;4989604;28;20178;-72
2023/12/09 06:55:43;;;;;;;1.48;1.38;;;19.00;56.60;;;;;;4973541;28;20558;-71
2023/12/09 06:58:09;;;;;;;1.33;1.30;;;19.00;56.70;;;;;;4973176;28;20197;-71
2023/12/09 07:00:36;;;;;;;1.23;1.13;;;18.90;56.60;;;;;;4974791;28;20280;-72
2023/12/09 07:03:02;;;;;;;1.10;1.10;;;19.00;56.60;;;;;;4991045;28;20194;-72
2023/12/09 07:05:28;;;;;;;1.00;1.00;;;19.00;56.60;;;;;;4966207;28;20227;-71
2023/12/09 07:07:54;;;;;;;1.10;1.00;;;19.00;56.60;;;;;;4960196;28;20218;-71
2023/12/09 07:10:20;;;;;;;1.10;1.10;;;19.00;56.60;;;;;;4972766;28;20213;-71
2023/12/09 07:12:45;;;;;;;1.20;1.10;;;19.00;56.60;;;;;;4967308;28;20181;-72
2023/12/09 07:15:13;;;;;;;1.30;1.20;;;19.00;56.60;;;;;;4984484;28;20190;-71
2023/12/09 07:17:39;;;;;;;1.30;1.20;;;19.00;56.60;;;;;;4970431;28;20197;-71
2023/12/09 07:20:07;;;;;;;1.25;1.25;;;19.00;56.60;;;;;;4972304;28;20217;-71
2023/12/09 07:22:33;;;;;;;1.20;1.10;;;19.00;56.60;;;;;;4968145;28;20185;-71
2023/12/09 07:24:59;;;;;;;1.42;1.10;;;19.00;56.60;;;;;;4960413;28;20204;-71
2023/12/09 07:27:24;;;;;;;1.10;1.10;;;19.00;56.60;;;;;;4978981;28;20226;-71
2023/12/09 07:29:50;;;;;;;1.10;1.10;;;19.00;56.60;;;;;;4967923;28;20233;-71
2023/12/09 07:32:16;;;;;;;1.10;1.00;;;19.00;56.60;;;;;;4986469;28;20204;-71
2023/12/09 07:34:42;;;;;;;1.25;1.17;;;19.00;56.60;;;;;;4988399;28;20186;-71
2023/12/09 07:37:10;;;;;;;1.77;1.30;;;19.00;56.60;;;;;;4956731;28;20193;-71
2023/12/09 07:39:35;;;;;;;1.13;1.13;;;19.00;56.70;;;;;;4970679;28;20654;-71
2023/12/09 07:42:01;;;;;;;1.23;1.15;;;19.00;56.70;;;;;;4947901;28;20198;-71
2023/12/09 07:44:27;;;;;;;1.17;1.08;;;19.00;56.70;;;;;;4971197;28;20201;-71
2023/12/09 07:46:52;;;;;;;0.98;0.98;;;19.00;56.70;;;;;;4979468;28;20272;-69
2023/12/09 07:49:18;;;;;;;1.48;1.20;;;19.00;56.60;;;;;;4972300;28;20659;-71
2023/12/09 07:51:44;;;;;;;1.80;1.42;;;19.00;56.70;;;;;;4957361;28;20194;-70
2023/12/09 07:54:10;;;;;;;1.40;1.30;;;19.00;56.60;;;;;;4953358;28;20190;-70
2023/12/09 07:56:35;;;;;;;1.60;1.50;;;19.00;56.60;;;;;;4965671;28;20186;-71
2023/12/09 07:59:01;;;;;;;1.27;1.17;;;19.00;56.60;;;;;;4972234;28;20213;-72
2023/12/09 08:01:27;;;;;;;0.90;0.90;;;19.00;56.70;;;;;;4973383;28;20260;-72
2023/12/09 08:03:53;;;;;;;1.10;1.00;;;19.00;56.70;;;;;;4969038;28;20274;-70
2023/12/09 08:06:18;;;;;;;1.60;1.50;;;19.10;56.80;;;;;;4952325;28;20190;-71
2023/12/09 08:08:44;;;;;;;1.42;1.33;;;19.10;56.80;;;;;;4971367;28;20229;-71
2023/12/09 08:11:10;;;;;;;1.58;1.40;;;19.10;56.70;;;;;;4971861;28;20673;-71
2023/12/09 08:13:36;;;;;;;1.50;1.40;;;19.00;56.70;;;;;;4957333;28;20205;-71
2023/12/09 08:16:02;;;;;;;1.67;1.58;;;19.00;56.70;;;;;;4984952;28;20197;-71
2023/12/09 08:18:27;;;;;;;1.60;1.38;;;19.00;56.70;;;;;;4968891;28;20197;-71
2023/12/09 08:20:54;;;;;;;1.75;1.25;;;19.00;56.70;;;;;;4972423;28;20252;-70
2023/12/09 08:23:20;;;;;;;1.30;1.20;;;19.00;56.70;;;;;;4971890;28;20583;-71
2023/12/09 08:25:46;;;;;;;1.77;1.60;;;19.00;56.70;;;;;;4955662;28;20244;-71
2023/12/09 08:28:11;;;;;;;1.42;1.33;;;19.00;56.70;;;;;;4955497;28;20217;-72
2023/12/09 08:30:39;;;;;;;1.60;1.50;;;19.00;56.70;;;;;;4987772;28;20217;-71
2023/12/09 08:33:04;;;;;;;1.30;1.20;;;19.00;56.80;;;;;;4972006;28;20684;-71
2023/12/09 08:35:30;;;;;;;1.38;1.27;;;19.00;56.70;;;;;;4955544;28;20189;-71
2023/12/09 08:37:56;;;;;;;1.30;1.20;;;19.00;56.70;;;;;;4972872;28;20260;-71
2023/12/09 08:40:22;;;;;;;1.38;1.00;;;19.00;56.80;;;;;;4983756;28;20297;-71
2023/12/09 08:42:47;;;;;;;1.80;1.70;;;19.10;56.80;;;;;;4971738;28;20193;-71
2023/12/09 08:45:16;;;;;;;1.63;1.50;;;19.10;56.80;;;;;;4973005;28;20220;-71
2023/12/09 08:47:42;;;;;;;1.50;1.38;;;19.10;56.80;;;;;;4972742;28;20652;-70
2023/12/09 08:50:08;;;;;;;1.50;1.40;;;19.10;56.80;;;;;;4987790;28;20601;-70
2023/12/09 08:52:35;;;;;;;1.50;1.40;;;19.10;56.80;;;;;;4969631;28;20191;-70
2023/12/09 08:55:01;;;;;;;1.52;1.35;;;19.10;56.80;;;;;;4990226;28;20208;-69
2023/12/09 08:57:27;;;;;;;1.10;1.10;;;19.10;56.80;;;;;;4975653;28;20249;-69
2023/12/09 08:59:53;;;;;;;1.50;1.40;;;19.10;56.80;;;;;;4991551;28;20360;-70
2023/12/09 09:02:21;;;;;;;1.52;1.42;;;19.10;56.80;;;;;;4991636;28;20201;-70
2023/12/09 09:04:47;;;;;;;1.80;1.70;;;19.10;56.80;;;;;;5002250;28;20279;-69
2023/12/09 09:07:13;;;;;;;1.48;1.30;;;19.10;56.80;;;;;;4985442;28;20668;-69
2023/12/09 09:09:39;;;;;;;1.83;1.40;;;19.10;56.80;;;;;;4984284;28;20213;-70
2023/12/09 09:12:08;;;;;;;1.55;1.45;;;19.10;56.80;;;;;;4975408;28;20192;-70
2023/12/09 09:14:36;;;;;;;1.63;1.52;;;19.10;56.80;;;;;;4975222;28;20186;-70
2023/12/09 09:17:05;;;;;;;1.60;1.50;;;19.10;56.80;;;;;;4975378;28;20713;-69
2023/12/09 09:19:31;;;;;;;1.60;1.50;;;19.10;56.80;;;;;;4991267;28;20214;-70
2023/12/09 09:21:58;;;;;;;1.50;1.40;;;19.10;56.80;;;;;;4991228;28;20620;-70
2023/12/09 09:24:24;;;;;;;2.45;1.45;;;19.10;56.80;;;;;;4991271;28;20220;-70
2023/12/09 09:26:50;;;;;;;1.42;1.33;;;19.10;56.80;;;;;;4991080;28;20870;-70
2023/12/09 09:29:15;;;;;;;1.60;1.50;;;19.10;56.80;;;;;;4991158;28;20221;-70
2023/12/09 09:31:41;;;;;;;1.75;1.65;;;19.10;56.80;;;;;;4991130;28;20204;-70
2023/12/09 09:34:07;;;;;;;1.60;1.50;;;19.10;56.80;;;;;;4974841;28;20193;-70
2023/12/09 09:36:32;;;;;;;1.67;1.50;;;19.10;56.80;;;;;;4975505;28;20182;-70
2023/12/09 09:38:58;;;;;;;1.48;1.38;;;19.10;56.80;;;;;;4998160;28;20201;-70
2023/12/09 09:41:54;;;;;;;1.40;1.30;;;19.20;56.90;;;;;;4974751;28;20192;-69
2023/12/09 09:44:26;;;;;;;1.60;1.40;;;19.20;56.90;;;;;;4974664;28;20280;-70
2023/12/09 09:46:57;;;;;;;1.60;1.50;;;19.20;56.90;;;;;;4974035;28;20185;-70
2023/12/09 09:49:25;;;;;;;1.70;1.60;;;19.10;56.80;;;;;;4974592;28;20225;-70
2023/12/09 09:51:56;;;;;;;1.60;1.50;;;19.10;56.80;;;;;;4991086;28;20217;-71
2023/12/09 09:54:28;;;;;;;1.40;1.30;;;19.10;56.80;;;;;;4974704;28;20189;-70
2023/12/09 09:56:58;;;;;;;1.60;1.50;;;19.20;56.90;;;;;;4976795;28;20193;-70
2023/12/09 09:59:25;;;;;;;1.75;1.65;;;19.20;56.90;;;;;;4984847;28;20209;-70
2023/12/09 10:01:52;;;;;;;1.30;1.20;;;19.20;56.90;;;;;;4982574;28;20186;-69
2023/12/09 10:04:17;;;;;;;1.50;1.40;;;19.20;56.90;;;;;;4974241;28;20198;-70
2023/12/09 10:06:43;;;;;;;3.28;1.48;;;19.20;56.90;;;;;;4971394;28;20198;-70
2023/12/09 10:09:09;;;;;;;1.55;1.42;;;19.20;56.90;;;;;;4994736;28;20270;-69
2023/12/09 10:11:35;;;;;;;3.38;1.50;;;19.20;56.90;;;;;;4974393;28;20189;-71
2023/12/09 10:14:01;;;;;;;3.05;1.60;;;19.20;56.90;;;;;;4990247;28;20201;-71
2023/12/09 10:16:26;;;;;;;1.60;1.42;;;19.20;56.90;;;;;;4974097;28;20248;-70
2023/12/09 10:18:53;;;;;;;1.50;1.40;;;19.20;56.90;;;;;;4981969;28;20198;-71
2023/12/09 10:21:19;;;;;;;2.13;1.48;;;19.20;56.90;;;;;;4975317;28;20281;-71
2023/12/09 10:23:45;;;;;;;1.73;1.60;;;19.20;56.90;;;;;;4973892;28;20280;-70
2023/12/09 10:26:14;;;;;;;1.73;1.63;;;19.20;56.90;;;;;;4990381;28;20198;-70
2023/12/09 10:28:40;;;;;;;1.88;1.70;;;19.20;56.90;;;;;;4973833;28;20220;-70
2023/12/09 10:31:08;;;;;;;1.60;1.50;;;19.20;56.90;;;;;;4990040;28;20201;-71
2023/12/09 10:33:34;;;;;;;1.70;1.60;;;19.20;56.90;;;;;;4974102;28;20186;-72
2023/12/09 10:36:01;;;;;;;1.33;1.20;;;19.20;56.90;;;;;;4989734;28;20186;-71
2023/12/09 10:38:28;;;;;;;1.35;1.25;;;19.20;56.90;;;;;;4989677;28;20236;-70
2023/12/09 10:40:54;;;;;;;1.88;1.42;;;19.20;56.90;;;;;;4974540;28;20237;-71
2023/12/09 10:43:24;;;;;;;1.55;1.30;;;19.20;56.90;;;;;;4977823;28;20239;-70
2023/12/09 10:45:49;;;;;;;1.30;1.20;;;19.20;57.00;;;;;;4973622;28;20261;-71
2023/12/09 10:48:15;;;;;;;1.63;1.40;;;19.20;57.00;;;;;;4989716;28;20792;-71
2023/12/09 10:50:45;;;;;;;1.85;1.60;;;19.20;57.00;;;;;;4957653;28;20218;-70
2023/12/09 10:53:11;;;;;;;1.52;1.42;;;19.20;57.00;;;;;;4973918;28;20202;-70
2023/12/09 10:55:36;;;;;;;1.90;1.58;;;19.20;57.00;;;;;;4973758;28;20637;-71
2023/12/09 10:58:05;;;;;;;1.77;1.52;;;19.20;57.00;;;;;;4979820;28;20190;-71
2023/12/09 11:00:32;;;;;;;1.25;1.15;;;19.20;57.00;;;;;;4989633;28;20225;-70
2023/12/09 11:03:00;;;;;;;2.83;1.75;;;19.20;57.10;;;;;;4979172;28;20201;-70
2023/12/09 11:05:26;;;;;;;3.40;2.00;;;19.20;56.90;;;;;;4973371;28;20244;-71
2023/12/09 11:07:54;;;;;;;2.33;2.10;;;19.20;57.00;;;;;;4987432;28;20213;-71
2023/12/09 11:10:20;;;;;;;3.53;2.20;;;19.20;57.00;;;;;;4989202;28;20209;-70
2023/12/09 11:12:49;;;;;;;2.75;2.42;;;19.30;57.10;;;;;;4978458;28;20268;-70
2023/12/09 11:15:18;;;;;;;2.55;2.05;;;19.20;57.00;;;;;;4969362;28;20213;-70
2023/12/09 11:17:45;;;;;;;2.15;1.95;;;19.20;57.00;;;;;;4967974;28;20225;-70
2023/12/09 11:20:13;;;;;;;2.65;2.00;;;19.30;57.10;;;;;;4989015;28;20214;-72
2023/12/09 11:22:45;;;;;;;2.67;2.03;;;19.20;57.10;;;;;;4973000;28;20182;-71
2023/12/09 11:25:25;;;;;;;1.92;1.73;;;19.20;57.10;;;;;;4978120;28;20576;-70
2023/12/09 11:27:53;;;;;;;3.53;2.03;;;19.20;57.10;;;;;;4970807;28;20222;-71
2023/12/09 11:30:30;;;;;;;2.30;2.10;;;19.20;57.10;;;;;;4965586;28;20296;-71
2023/12/09 11:32:57;;;;;;;2.30;2.10;;;19.20;57.10;;;;;;4970159;28;20221;-71
2023/12/09 11:35:26;;;;;;;2.53;1.90;;;19.20;57.10;;;;;;4988806;28;20232;-71
2023/12/09 11:37:54;;;;;;;2.15;1.88;;;19.20;57.10;;;;;;4972646;28;20189;-70
2023/12/09 11:40:21;;;;;;;1.90;1.67;;;19.20;57.10;;;;;;4971188;28;20217;-71
2023/12/09 11:42:49;;;;;;;2.28;2.08;;;19.30;57.20;;;;;;4970251;28;20205;-71
2023/12/09 11:45:15;;;;;;;2.25;2.05;;;19.20;57.10;;;;;;4988618;28;20193;-70
2023/12/09 11:47:42;;;;;;;2.40;1.70;;;19.30;57.20;;;;;;4988559;28;20244;-71
2023/12/09 11:50:08;;;;;;;2.20;2.00;;;19.20;57.10;;;;;;4972277;28;20213;-70
2023/12/09 11:52:34;;;;;;;3.75;2.08;;;19.20;57.10;;;;;;4977257;28;20208;-71
2023/12/09 11:55:04;;;;;;;2.60;1.80;;;19.20;57.10;;;;;;4986470;28;20282;-71
2023/12/09 11:57:33;;;;;;;2.20;2.00;;;19.20;57.10;;;;;;4977912;28;20192;-71
2023/12/09 11:59:58;;;;;;;2.28;2.08;;;19.30;57.20;;;;;;4956211;28;20225;-72
2023/12/09 12:02:24;;;;;;;2.47;2.03;;;19.20;57.10;;;;;;4972165;28;20189;-71
2023/12/09 12:04:50;;;;;;;1.75;1.65;;;19.20;57.10;;;;;;4972190;28;20546;-70
2023/12/09 12:07:16;;;;;;;1.92;1.50;;;19.20;57.10;;;;;;4972374;28;20190;-71
2023/12/09 12:09:41;;;;;;;2.10;1.60;;;19.20;57.20;;;;;;4972029;28;20205;-70
2023/12/09 12:12:08;;;;;;;1.80;1.65;;;19.20;57.10;;;;;;4975737;28;20197;-71
2023/12/09 12:14:36;;;;;;;2.45;1.70;;;19.20;57.20;;;;;;4990695;28;20354;-71
2023/12/09 12:17:03;;;;;;;2.13;1.70;;;19.20;57.10;;;;;;4964157;28;20244;-71
2023/12/09 12:19:30;;;;;;;2.03;1.92;;;19.30;57.20;;;;;;4971682;28;20225;-71
2023/12/09 12:21:56;;;;;;;1.75;1.65;;;19.20;57.10;;;;;;4972030;28;20194;-71
2023/12/09 12:24:22;;;;;;;2.88;1.83;;;19.20;57.10;;;;;;4971869;28;20260;-71
2023/12/09 12:26:48;;;;;;;2.60;2.20;;;19.20;57.10;;;;;;4972884;28;20201;-71
2023/12/09 12:29:20;;;;;;;1.92;1.70;;;19.20;57.10;;;;;;4966452;28;20217;-71
2023/12/09 12:31:50;;;;;;;1.70;1.60;;;19.20;57.20;;;;;;4956554;28;20197;-71
2023/12/09 12:34:17;;;;;;;1.58;1.48;;;19.20;57.10;;;;;;4966967;28;20189;-70
2023/12/09 12:36:44;;;;;;;1.77;1.60;;;19.30;57.80;;;;;;4987893;28;20197;-71
2023/12/09 12:39:14;;;;;;;1.88;1.73;;;19.20;57.10;;;;;;4972726;28;20295;-71
2023/12/09 12:41:40;;;;;;;1.88;1.77;;;19.20;57.10;;;;;;4988104;28;20189;-71
2023/12/09 12:44:06;;;;;;;2.25;1.60;;;19.30;57.20;;;;;;4973720;28;20200;-71
2023/12/09 12:46:33;;;;;;;2.35;1.48;;;19.20;57.10;;;;;;4969141;28;20187;-71